createdAt,value
2023-01-13T00:02:01.882Z,7.50
2023-01-13T00:04:33.763Z,7.50
2023-01-13T00:07:05.587Z,7.50
2023-01-13T00:09:37.446Z,7.40
2023-01-13T00:12:11.709Z,7.40
2023-01-13T00:14:43.622Z,7.50
2023-01-13T00:17:15.413Z,7.50
2023-01-13T00:19:50.052Z,7.50
2023-01-13T00:22:21.848Z,7.60
2023-01-13T00:24:53.717Z,7.60
2023-01-13T00:27:25.521Z,7.70
2023-01-13T00:29:57.441Z,7.70
2023-01-13T00:32:30.204Z,7.70
2023-01-13T00:35:02.207Z,7.70
2023-01-13T00:37:35.755Z,7.80
2023-01-13T00:40:10.328Z,7.80
2023-01-13T00:43:11.507Z,7.80
2023-01-13T00:45:43.863Z,7.80
2023-01-13T00:48:15.721Z,7.80
2023-01-13T00:50:49.946Z,7.80
2023-01-13T00:53:21.873Z,7.80
2023-01-13T00:56:06.064Z,7.80
2023-01-13T00:58:37.911Z,7.80
2023-01-13T01:01:11.656Z,7.80
2023-01-13T01:03:43.521Z,7.80
2023-01-13T01:06:20.264Z,7.80
2023-01-13T01:08:54.831Z,7.70
2023-01-13T01:11:27.987Z,7.70
2023-01-13T01:14:01.329Z,7.70
2023-01-13T01:16:35.807Z,7.60
2023-01-13T01:19:07.917Z,7.60
2023-01-13T01:21:39.769Z,7.60
2023-01-13T01:24:11.575Z,7.60
2023-01-13T01:26:43.724Z,7.70
2023-01-13T01:29:15.712Z,7.70
2023-01-13T01:31:47.628Z,7.70
2023-01-13T01:34:19.485Z,7.70
2023-01-13T01:36:53.650Z,7.70
2023-01-13T01:39:25.514Z,7.70
2023-01-13T01:42:16.038Z,7.80
2023-01-13T01:44:50.665Z,7.80
2023-01-13T01:47:23.458Z,7.80
2023-01-13T01:49:55.588Z,7.80
2023-01-13T01:52:30.277Z,7.80
2023-01-13T01:55:06.475Z,7.80
2023-01-13T01:57:42.049Z,7.80
2023-01-13T02:00:14.246Z,7.80
2023-01-13T02:02:47.505Z,7.80
2023-01-13T02:05:19.799Z,7.80
2023-01-13T02:07:52.822Z,7.80
2023-01-13T02:10:27.665Z,7.80
2023-01-13T02:13:02.480Z,7.80
2023-01-13T02:15:40.338Z,7.80
2023-01-13T02:18:19.456Z,7.80
2023-01-13T02:20:53.981Z,7.80
2023-01-13T02:23:50.225Z,7.80
2023-01-13T02:26:57.446Z,7.70
2023-01-13T02:30:06.420Z,7.70
2023-01-13T02:32:56.819Z,7.70
2023-01-13T02:35:39.066Z,7.70
2023-01-13T02:38:13.363Z,7.70
2023-01-13T02:40:59.381Z,7.70
2023-01-13T02:43:58.045Z,7.70
2023-01-13T02:46:31.840Z,7.70
2023-01-13T02:49:06.451Z,7.70
2023-01-13T02:51:39.698Z,7.70
2023-01-13T02:54:15.968Z,7.60
2023-01-13T02:56:48.906Z,7.70
2023-01-13T02:59:22.259Z,7.60
2023-01-13T03:01:57.616Z,7.60
2023-01-13T03:04:44.675Z,7.60
2023-01-13T03:07:26.161Z,7.60
2023-01-13T03:10:10.035Z,7.70
2023-01-13T03:12:54.239Z,7.70
2023-01-13T03:15:37.203Z,7.70
2023-01-13T03:18:27.418Z,7.70
2023-01-13T03:21:04.495Z,7.60
2023-01-13T03:23:59.547Z,7.70
2023-01-13T03:26:42.559Z,7.60
2023-01-13T03:29:14.353Z,7.70
2023-01-13T03:31:55.520Z,7.60
2023-01-13T03:34:32.422Z,7.60
2023-01-13T03:37:06.124Z,7.60
2023-01-13T03:39:39.479Z,7.70
2023-01-13T03:42:13.454Z,7.60
2023-01-13T03:44:48.815Z,7.70
2023-01-13T03:47:20.620Z,7.60
2023-01-13T03:49:54.735Z,7.70
2023-01-13T03:52:29.835Z,7.70
2023-01-13T03:55:07.748Z,7.70
2023-01-13T03:57:43.144Z,7.70
2023-01-13T04:00:16.048Z,7.70
2023-01-13T04:02:59.003Z,7.70
2023-01-13T04:05:31.643Z,7.70
2023-01-13T04:08:18.953Z,7.70
2023-01-13T04:10:50.808Z,7.70
2023-01-13T04:13:24.403Z,7.70
2023-01-13T04:15:56.549Z,7.70
2023-01-13T04:18:29.388Z,7.70
2023-01-13T04:21:06.296Z,7.70
2023-01-13T04:23:38.067Z,7.70
2023-01-13T04:26:09.949Z,7.70
2023-01-13T04:28:41.768Z,7.70
2023-01-13T04:31:15.857Z,7.70
2023-01-13T04:33:47.680Z,7.70
2023-01-13T04:36:19.779Z,7.70
2023-01-13T04:38:51.694Z,7.70
2023-01-13T04:41:23.512Z,7.70
2023-01-13T04:43:58.155Z,7.70
2023-01-13T04:46:30.081Z,7.70
2023-01-13T04:49:01.915Z,7.70
2023-01-13T04:51:33.738Z,7.80
2023-01-13T04:54:05.593Z,7.80
2023-01-13T04:56:39.951Z,7.80
2023-01-13T04:59:12.069Z,7.80
2023-01-13T05:01:46.283Z,7.80
2023-01-13T05:04:18.114Z,7.80
2023-01-13T05:06:50.037Z,7.80
2023-01-13T05:09:21.820Z,7.80
2023-01-13T05:12:28.948Z,7.80
2023-01-13T05:15:19.188Z,7.80
2023-01-13T05:17:51.393Z,7.80
2023-01-13T05:20:23.255Z,7.80
2023-01-13T05:23:13.768Z,7.80
2023-01-13T05:25:49.273Z,7.80
2023-01-13T05:28:21.233Z,7.80
2023-01-13T05:30:53.000Z,7.80
2023-01-13T05:33:27.211Z,7.80
2023-01-13T05:36:01.810Z,7.80
2023-01-13T05:38:33.753Z,7.80
2023-01-13T05:41:24.198Z,7.80
2023-01-13T05:43:55.996Z,7.90
2023-01-13T05:46:27.811Z,7.90
2023-01-13T05:49:02.304Z,7.90
2023-01-13T05:51:34.097Z,7.90
2023-01-13T05:54:08.015Z,7.90
2023-01-13T05:56:39.773Z,7.90
2023-01-13T05:59:11.704Z,7.90
2023-01-13T06:01:46.003Z,7.90
2023-01-13T06:04:17.875Z,7.90
2023-01-13T06:06:49.883Z,7.90
2023-01-13T06:09:27.047Z,7.90
2023-01-13T06:11:58.863Z,7.90
2023-01-13T06:14:40.117Z,8.00
2023-01-13T06:17:15.299Z,8.00
2023-01-13T06:19:47.141Z,8.00
2023-01-13T06:22:23.822Z,8.00
2023-01-13T06:24:55.716Z,8.00
2023-01-13T06:27:28.563Z,8.00
2023-01-13T06:30:01.252Z,8.00
2023-01-13T06:32:35.492Z,8.00
2023-01-13T06:35:09.476Z,8.10
2023-01-13T06:37:42.830Z,8.10
2023-01-13T06:40:15.338Z,8.10
2023-01-13T06:43:05.537Z,8.10
2023-01-13T06:45:37.377Z,8.10
2023-01-13T06:48:09.225Z,8.00
2023-01-13T06:50:42.325Z,8.10
2023-01-13T06:53:14.127Z,8.10
2023-01-13T06:55:45.964Z,8.10
2023-01-13T06:58:20.828Z,8.10
2023-01-13T07:00:52.813Z,8.10
2023-01-13T07:03:27.483Z,8.10
2023-01-13T07:05:59.984Z,8.10
2023-01-13T07:08:34.076Z,8.10
2023-01-13T07:11:06.283Z,8.10
2023-01-13T07:13:56.713Z,8.20
2023-01-13T07:16:30.868Z,8.10
2023-01-13T07:19:05.104Z,8.20
2023-01-13T07:21:36.919Z,8.10
2023-01-13T07:24:08.687Z,8.10
2023-01-13T07:26:40.479Z,8.10
2023-01-13T07:29:12.401Z,8.20
2023-01-13T07:31:49.726Z,8.20
2023-01-13T07:34:21.688Z,8.20
2023-01-13T07:36:53.487Z,8.20
2023-01-13T07:39:25.286Z,8.20
2023-01-13T07:42:35.505Z,8.20
2023-01-13T07:45:07.581Z,8.20
2023-01-13T07:47:39.582Z,8.20
2023-01-13T07:50:11.358Z,8.20
2023-01-13T07:52:43.152Z,8.20
2023-01-13T07:55:14.992Z,8.20
2023-01-13T07:57:48.429Z,8.20
2023-01-13T08:00:20.850Z,8.20
2023-01-13T08:02:52.863Z,8.20
2023-01-13T08:05:24.736Z,8.30
2023-01-13T08:07:56.593Z,8.30
2023-01-13T08:10:28.357Z,8.30
2023-01-13T08:13:18.416Z,8.30
2023-01-13T08:15:51.673Z,8.30
2023-01-13T08:18:23.511Z,8.30
2023-01-13T08:21:01.206Z,8.30
2023-01-13T08:23:33.063Z,8.40
2023-01-13T08:26:06.117Z,8.40
2023-01-13T08:28:40.400Z,8.40
2023-01-13T08:31:13.860Z,8.40
2023-01-13T08:33:47.847Z,8.40
2023-01-13T08:36:20.483Z,8.40
2023-01-13T08:38:57.278Z,8.50
2023-01-13T08:41:49.951Z,8.50
2023-01-13T08:44:28.610Z,8.50
2023-01-13T08:47:00.460Z,8.50
2023-01-13T08:49:32.329Z,8.50
2023-01-13T08:52:06.502Z,8.50
2023-01-13T08:54:39.202Z,8.50
2023-01-13T08:57:11.084Z,8.50
2023-01-13T08:59:43.552Z,8.50
2023-01-13T09:02:16.581Z,8.60
2023-01-13T09:04:48.760Z,8.60
2023-01-13T09:07:22.909Z,8.60
2023-01-13T09:09:56.899Z,8.60
2023-01-13T09:12:47.443Z,8.70
2023-01-13T09:15:19.282Z,8.70
2023-01-13T09:17:51.186Z,8.80
2023-01-13T09:20:23.052Z,8.80
2023-01-13T09:22:54.869Z,8.80
2023-01-13T09:25:26.669Z,8.80
2023-01-13T09:28:00.855Z,8.90
2023-01-13T09:30:35.108Z,8.90
2023-01-13T09:33:25.152Z,8.90
2023-01-13T09:36:02.272Z,8.90
2023-01-13T09:38:34.040Z,8.90
2023-01-13T09:41:33.778Z,8.80
2023-01-13T09:44:07.940Z,8.80
2023-01-13T09:46:47.488Z,8.80
2023-01-13T09:49:29.183Z,8.80
2023-01-13T09:52:09.472Z,8.70
2023-01-13T09:54:46.795Z,8.70
2023-01-13T09:57:19.781Z,8.70
2023-01-13T09:59:54.050Z,8.80
2023-01-13T10:02:32.413Z,8.80
2023-01-13T10:05:04.354Z,8.80
2023-01-13T10:07:37.360Z,8.90
2023-01-13T10:10:13.538Z,8.90
2023-01-13T10:13:07.623Z,9.00
2023-01-13T10:15:40.634Z,9.00
2023-01-13T10:18:12.409Z,9.10
2023-01-13T10:20:44.204Z,9.20
2023-01-13T10:23:34.715Z,9.20
2023-01-13T10:26:12.534Z,9.30
2023-01-13T10:28:54.023Z,9.20
2023-01-13T10:31:26.298Z,9.20
2023-01-13T10:34:01.848Z,9.20
2023-01-13T10:36:33.637Z,9.20
2023-01-13T10:39:16.001Z,9.20
2023-01-13T10:41:47.781Z,9.20
2023-01-13T10:44:22.062Z,9.30
2023-01-13T10:46:55.123Z,9.50
2023-01-13T10:49:29.105Z,9.60
2023-01-13T10:52:02.046Z,9.80
2023-01-13T10:54:51.811Z,9.90
2023-01-13T10:57:25.177Z,10.10
2023-01-13T10:59:57.015Z,10.30
2023-01-13T11:02:30.728Z,10.30
2023-01-13T11:05:09.989Z,10.30
2023-01-13T11:07:50.470Z,10.40
2023-01-13T11:10:24.305Z,10.40
2023-01-13T11:12:59.349Z,10.40
2023-01-13T11:15:38.488Z,10.40
2023-01-13T11:18:27.998Z,10.20
2023-01-13T11:21:00.432Z,10.10
2023-01-13T11:23:34.381Z,10.00
2023-01-13T11:26:14.733Z,9.90
2023-01-13T11:28:57.400Z,9.80
2023-01-13T11:31:50.347Z,9.80
2023-01-13T11:34:22.073Z,9.80
2023-01-13T11:36:58.326Z,9.80
2023-01-13T11:39:49.219Z,9.90
2023-01-13T11:42:21.006Z,9.90
2023-01-13T11:44:52.728Z,10.00
2023-01-13T11:47:26.137Z,10.00
2023-01-13T11:49:58.321Z,10.20
2023-01-13T11:52:34.131Z,10.20
2023-01-13T11:55:24.416Z,10.30
2023-01-13T11:57:56.207Z,10.20
2023-01-13T12:00:42.921Z,10.20
2023-01-13T12:03:33.789Z,10.20
2023-01-13T12:06:14.602Z,10.20
2023-01-13T12:08:52.261Z,10.10
2023-01-13T12:12:02.746Z,10.10
2023-01-13T12:14:40.696Z,10.00
2023-01-13T12:17:37.753Z,10.00
2023-01-13T12:20:21.579Z,9.90
2023-01-13T12:22:54.508Z,9.90
2023-01-13T12:25:31.133Z,9.90
2023-01-13T12:28:02.901Z,9.90
2023-01-13T12:30:37.167Z,10.00
2023-01-13T12:33:38.440Z,9.90
2023-01-13T12:36:13.263Z,9.90
2023-01-13T12:38:49.474Z,9.80
2023-01-13T12:41:21.236Z,9.80
2023-01-13T12:44:11.899Z,9.70
2023-01-13T12:46:46.878Z,9.70
2023-01-13T12:49:22.986Z,9.60
2023-01-13T12:51:54.801Z,9.60
2023-01-13T12:54:44.065Z,9.50
2023-01-13T12:57:24.511Z,9.50
2023-01-13T12:59:59.174Z,9.50
2023-01-13T13:02:32.852Z,9.50
2023-01-13T13:05:23.046Z,9.50
2023-01-13T13:08:14.720Z,9.50
2023-01-13T13:11:02.053Z,9.50
2023-01-13T13:13:41.801Z,9.50
2023-01-13T13:16:25.760Z,9.50
2023-01-13T13:19:16.172Z,9.50
2023-01-13T13:22:06.685Z,9.40
2023-01-13T13:24:42.003Z,9.40
2023-01-13T13:27:19.578Z,9.40
2023-01-13T13:30:00.778Z,9.30
2023-01-13T13:32:47.897Z,9.30
2023-01-13T13:35:38.962Z,9.30
2023-01-13T13:38:48.379Z,9.20
2023-01-13T13:41:40.347Z,9.20
2023-01-13T13:44:33.633Z,9.10
2023-01-13T13:47:06.556Z,9.10
2023-01-13T13:49:43.625Z,9.10
2023-01-13T13:52:20.756Z,9.00
2023-01-13T13:54:54.466Z,9.00
2023-01-13T13:57:39.441Z,9.00
2023-01-13T14:00:14.614Z,9.00
2023-01-13T14:02:51.469Z,8.90
2023-01-13T14:05:23.246Z,8.80
2023-01-13T14:07:59.718Z,8.80
2023-01-13T14:10:38.623Z,8.80
2023-01-13T14:13:22.407Z,8.70
2023-01-13T14:16:20.169Z,8.70
2023-01-13T14:18:51.987Z,8.60
2023-01-13T14:21:27.835Z,8.50
2023-01-13T14:24:02.067Z,8.50
2023-01-13T14:26:33.839Z,8.50
2023-01-13T14:29:06.114Z,8.40
2023-01-13T14:31:38.397Z,8.30
2023-01-13T14:34:30.530Z,8.30
2023-01-13T14:37:03.801Z,8.20
2023-01-13T14:39:38.896Z,8.20
2023-01-13T14:42:14.223Z,8.20
2023-01-13T14:44:47.343Z,8.10
2023-01-13T14:47:21.079Z,8.00
2023-01-13T14:49:59.114Z,7.80
2023-01-13T14:52:32.344Z,7.80
2023-01-13T14:55:04.100Z,7.70
2023-01-13T14:57:37.131Z,7.60
2023-01-13T15:00:11.915Z,7.60
2023-01-13T15:02:58.653Z,7.60
2023-01-13T15:05:32.050Z,7.50
2023-01-13T15:08:11.241Z,7.50
2023-01-13T15:10:51.429Z,7.50
2023-01-13T15:13:26.255Z,7.40
2023-01-13T15:16:01.635Z,7.40
2023-01-13T15:18:35.729Z,7.40
2023-01-13T15:21:08.305Z,7.40
2023-01-13T15:23:41.195Z,7.30
2023-01-13T15:26:18.371Z,7.30
2023-01-13T15:28:50.513Z,7.20
2023-01-13T15:31:22.896Z,7.10
2023-01-13T15:33:54.780Z,7.10
2023-01-13T15:36:29.709Z,7.10
2023-01-13T15:39:01.926Z,7.10
2023-01-13T15:41:52.457Z,7.00
2023-01-13T15:44:42.568Z,7.00
2023-01-13T15:47:14.805Z,7.00
2023-01-13T15:49:46.835Z,7.10
2023-01-13T15:52:18.593Z,7.00
2023-01-13T15:54:50.699Z,7.00
2023-01-13T15:57:22.651Z,7.00
2023-01-13T16:00:05.725Z,7.00
2023-01-13T16:02:37.622Z,7.00
2023-01-13T16:05:10.105Z,7.00
2023-01-13T16:07:42.049Z,7.00
2023-01-13T16:10:24.653Z,7.00
2023-01-13T16:12:58.963Z,7.00
2023-01-13T16:15:31.048Z,6.90
2023-01-13T16:18:04.318Z,6.90
2023-01-13T16:20:36.244Z,6.80
2023-01-13T16:23:08.054Z,6.80
2023-01-13T16:25:40.418Z,6.80
2023-01-13T16:28:30.288Z,6.80
2023-01-13T16:31:15.152Z,6.80
2023-01-13T16:33:47.060Z,6.70
2023-01-13T16:36:20.185Z,6.70
2023-01-13T16:38:52.583Z,6.70
2023-01-13T16:41:29.738Z,6.70
2023-01-13T16:44:06.150Z,6.70
2023-01-13T16:46:40.800Z,6.60
2023-01-13T16:49:16.781Z,6.60
2023-01-13T16:51:48.630Z,6.60
2023-01-13T16:54:20.492Z,6.50
2023-01-13T16:56:52.311Z,6.50
2023-01-13T16:59:24.123Z,6.50
2023-01-13T17:01:55.925Z,6.40
2023-01-13T17:04:27.739Z,6.30
2023-01-13T17:07:00.363Z,6.30
2023-01-13T17:09:32.273Z,6.30
2023-01-13T17:12:04.075Z,6.20
2023-01-13T17:14:35.898Z,6.20
2023-01-13T17:17:09.821Z,6.20
2023-01-13T17:19:41.584Z,6.10
2023-01-13T17:22:13.322Z,6.10
2023-01-13T17:24:48.764Z,6.10
2023-01-13T17:27:21.519Z,6.10
2023-01-13T17:29:53.414Z,6.10
2023-01-13T17:32:25.138Z,6.10
2023-01-13T17:35:01.714Z,6.20
2023-01-13T17:37:33.967Z,6.20
2023-01-13T17:40:06.132Z,6.30
2023-01-13T17:42:37.901Z,6.30
2023-01-13T17:45:12.089Z,6.40
2023-01-13T17:47:47.585Z,6.40
2023-01-13T17:50:19.728Z,6.40
2023-01-13T17:52:51.567Z,6.30
2023-01-13T17:55:23.378Z,6.30
2023-01-13T17:57:57.653Z,6.30
2023-01-13T18:00:29.925Z,6.30
2023-01-13T18:03:01.752Z,6.30
2023-01-13T18:05:34.226Z,6.30
2023-01-13T18:08:06.147Z,6.30
2023-01-13T18:10:38.101Z,6.30
2023-01-13T18:13:09.946Z,6.30
2023-01-13T18:15:41.757Z,6.30
2023-01-13T18:18:15.886Z,6.20
2023-01-13T18:21:06.455Z,6.10
2023-01-13T18:23:56.662Z,6.10
2023-01-13T18:26:46.988Z,6.00
2023-01-13T18:29:21.054Z,6.00
2023-01-13T18:31:52.860Z,6.00
2023-01-13T18:34:25.048Z,5.90
2023-01-13T18:36:59.320Z,6.00
2023-01-13T18:39:33.770Z,6.00
2023-01-13T18:42:27.942Z,5.90
2023-01-13T18:44:59.722Z,5.90
2023-01-13T18:47:32.246Z,5.90
2023-01-13T18:50:06.361Z,5.90
2023-01-13T18:52:38.230Z,5.90
2023-01-13T18:55:12.380Z,5.90
2023-01-13T18:57:44.269Z,5.90
2023-01-13T19:00:17.994Z,5.80
2023-01-13T19:05:38.596Z,5.80
2023-01-13T19:08:12.819Z,5.80
2023-01-13T19:10:46.588Z,5.80
2023-01-13T19:13:18.733Z,5.80
2023-01-13T19:15:52.629Z,5.80
2023-01-13T19:18:24.466Z,5.80
2023-01-13T19:21:00.292Z,5.80
2023-01-13T19:23:34.842Z,5.70
2023-01-13T19:26:08.267Z,5.70
2023-01-13T19:28:42.570Z,5.70
2023-01-13T19:31:17.131Z,5.70
2023-01-13T19:33:48.967Z,5.60
2023-01-13T19:36:20.740Z,5.70
2023-01-13T19:38:52.946Z,5.60
2023-01-13T19:41:43.121Z,5.60
2023-01-13T19:44:33.271Z,5.60
2023-01-13T19:47:06.454Z,5.60
2023-01-13T19:49:40.624Z,5.50
2023-01-13T19:52:14.948Z,5.50
2023-01-13T19:54:46.929Z,5.50
2023-01-13T19:57:22.461Z,5.50
2023-01-13T19:59:54.355Z,5.50
2023-01-13T20:02:28.528Z,5.50
2023-01-13T20:05:01.927Z,5.40
2023-01-13T20:07:35.163Z,5.50
2023-01-13T20:10:07.442Z,5.40
2023-01-13T20:12:42.745Z,5.40
2023-01-13T20:15:14.577Z,5.40
2023-01-13T20:17:46.416Z,5.40
2023-01-13T20:20:21.052Z,5.40
2023-01-13T20:22:53.070Z,5.30
2023-01-13T20:25:28.823Z,5.30
2023-01-13T20:28:02.265Z,5.30
2023-01-13T20:30:34.168Z,5.30
2023-01-13T20:33:05.992Z,5.30
2023-01-13T20:35:37.850Z,5.30
2023-01-13T20:38:14.403Z,5.30
2023-01-13T20:40:46.221Z,5.30
2023-01-13T20:43:18.032Z,5.30
2023-01-13T20:45:50.110Z,5.30
2023-01-13T20:48:21.846Z,5.30
2023-01-13T20:50:54.423Z,5.20
2023-01-13T20:53:26.245Z,5.20
2023-01-13T20:55:58.210Z,5.20
2023-01-13T20:58:29.954Z,5.20
2023-01-13T21:01:04.702Z,5.20
2023-01-13T21:03:36.562Z,5.20
2023-01-13T21:06:08.528Z,5.20
2023-01-13T21:08:40.435Z,5.10
2023-01-13T21:11:15.018Z,5.10
2023-01-13T21:14:05.384Z,5.10
2023-01-13T21:16:37.304Z,5.10
2023-01-13T21:19:10.700Z,5.10
2023-01-13T21:21:45.460Z,5.10
2023-01-13T21:24:17.573Z,5.10
2023-01-13T21:26:54.193Z,5.10
2023-01-13T21:29:26.039Z,5.10
2023-01-13T21:31:57.930Z,5.10
2023-01-13T21:34:29.725Z,5.10
2023-01-13T21:37:03.990Z,5.10
2023-01-13T21:39:35.847Z,5.10
2023-01-13T21:42:26.449Z,5.10
2023-01-13T21:45:16.854Z,5.10
2023-01-13T21:47:48.970Z,5.00
2023-01-13T21:50:25.062Z,5.00
2023-01-13T21:52:58.330Z,5.00
2023-01-13T21:55:32.951Z,5.00
2023-01-13T21:58:12.350Z,5.00
2023-01-13T22:00:44.917Z,5.00
2023-01-13T22:03:18.538Z,5.10
2023-01-13T22:05:54.618Z,5.10
2023-01-13T22:08:26.458Z,5.20
2023-01-13T22:10:58.708Z,5.20
2023-01-13T22:13:48.969Z,5.20
2023-01-13T22:16:21.021Z,5.20
2023-01-13T22:18:53.168Z,5.20
2023-01-13T22:21:27.155Z,5.20
2023-01-13T22:23:59.429Z,5.20
2023-01-13T22:26:31.209Z,5.30
2023-01-13T22:29:05.411Z,5.30
2023-01-13T22:31:37.945Z,5.40
2023-01-13T22:34:13.040Z,5.40
2023-01-13T22:36:44.761Z,5.50
2023-01-13T22:39:16.586Z,5.50
2023-01-13T22:41:48.401Z,5.50
2023-01-13T22:44:20.728Z,5.50
2023-01-13T22:46:52.509Z,5.40
2023-01-13T22:49:28.925Z,5.40
2023-01-13T22:52:00.719Z,5.30
2023-01-13T22:54:34.602Z,5.30
2023-01-13T22:57:06.399Z,5.40
2023-01-13T22:59:38.270Z,5.30
2023-01-13T23:02:09.973Z,5.30
2023-01-13T23:04:41.821Z,5.30
2023-01-13T23:07:13.604Z,5.30
2023-01-13T23:09:48.020Z,5.20
2023-01-13T23:12:19.782Z,5.20
2023-01-13T23:14:51.611Z,5.20
2023-01-13T23:17:23.370Z,5.20
2023-01-13T23:19:55.198Z,5.20
2023-01-13T23:22:26.980Z,5.20
2023-01-13T23:25:01.127Z,5.20
2023-01-13T23:27:34.384Z,5.20
2023-01-13T23:30:07.497Z,5.20
2023-01-13T23:32:39.247Z,5.20
2023-01-13T23:35:13.493Z,5.20
2023-01-13T23:37:45.228Z,5.20
2023-01-13T23:40:17.060Z,5.20
2023-01-13T23:42:48.800Z,5.20
2023-01-13T23:45:20.619Z,5.20
2023-01-13T23:47:52.545Z,5.20
2023-01-13T23:50:26.521Z,5.20
2023-01-13T23:52:58.325Z,5.20
2023-01-13T23:55:30.141Z,5.20
2023-01-13T23:58:02.091Z,5.20
